sensor_id;sensor_type;location;lat;lon;timestamp;P1;durP1;ratioP1;P2;durP2;ratioP2
9270;SDS011;4673;53.458;9.940;2023-05-07T00:01:38;8.67;;;8.67;;
9270;SDS011;4673;53.458;9.940;2023-05-07T00:04:05;8.50;;;8.50;;
9270;SDS011;4673;53.458;9.940;2023-05-07T00:06:31;8.40;;;8.40;;
9270;SDS011;4673;53.458;9.940;2023-05-07T00:08:57;9.17;;;9.17;;
9270;SDS011;4673;53.458;9.940;2023-05-07T00:11:23;7.70;;;7.70;;
9270;SDS011;4673;53.458;9.940;2023-05-07T00:13:49;9.20;;;9.20;;
9270;SDS011;4673;53.458;9.940;2023-05-07T00:16:15;9.20;;;9.20;;
9270;SDS011;4673;53.458;9.940;2023-05-07T00:18:41;8.80;;;8.80;;
9270;SDS011;4673;53.458;9.940;2023-05-07T00:21:07;7.00;;;7.00;;
9270;SDS011;4673;53.458;9.940;2023-05-07T00:23:32;8.37;;;8.37;;
9270;SDS011;4673;53.458;9.940;2023-05-07T00:25:58;8.63;;;8.63;;
9270;SDS011;4673;53.458;9.940;2023-05-07T00:28:24;8.20;;;8.20;;
9270;SDS011;4673;53.458;9.940;2023-05-07T00:30:49;6.93;;;6.93;;
9270;SDS011;4673;53.458;9.940;2023-05-07T00:33:15;7.33;;;7.33;;
9270;SDS011;4673;53.458;9.940;2023-05-07T00:35:41;7.37;;;7.37;;
9270;SDS011;4673;53.458;9.940;2023-05-07T00:38:08;7.70;;;7.70;;
9270;SDS011;4673;53.458;9.940;2023-05-07T00:40:34;7.80;;;7.80;;
9270;SDS011;4673;53.458;9.940;2023-05-07T00:42:59;7.53;;;7.53;;
9270;SDS011;4673;53.458;9.940;2023-05-07T00:45:28;7.63;;;7.63;;
9270;SDS011;4673;53.458;9.940;2023-05-07T00:47:55;7.53;;;7.53;;
9270;SDS011;4673;53.458;9.940;2023-05-07T00:50:22;7.60;;;7.60;;
9270;SDS011;4673;53.458;9.940;2023-05-07T00:52:48;7.30;;;7.30;;
9270;SDS011;4673;53.458;9.940;2023-05-07T00:55:13;7.87;;;7.87;;
9270;SDS011;4673;53.458;9.940;2023-05-07T00:57:40;6.97;;;6.97;;
9270;SDS011;4673;53.458;9.940;2023-05-07T01:00:06;7.00;;;7.00;;
9270;SDS011;4673;53.458;9.940;2023-05-07T01:02:37;6.27;;;6.27;;
9270;SDS011;4673;53.458;9.940;2023-05-07T01:05:03;6.13;;;6.13;;
9270;SDS011;4673;53.458;9.940;2023-05-07T01:07:32;6.27;;;6.27;;
9270;SDS011;4673;53.458;9.940;2023-05-07T01:09:59;5.80;;;5.80;;
9270;SDS011;4673;53.458;9.940;2023-05-07T01:12:26;6.37;;;6.37;;
9270;SDS011;4673;53.458;9.940;2023-05-07T01:14:52;6.47;;;6.47;;
9270;SDS011;4673;53.458;9.940;2023-05-07T01:17:18;7.07;;;7.07;;
9270;SDS011;4673;53.458;9.940;2023-05-07T01:19:44;7.00;;;7.00;;
9270;SDS011;4673;53.458;9.940;2023-05-07T01:22:11;6.60;;;6.60;;
9270;SDS011;4673;53.458;9.940;2023-05-07T01:24:39;5.83;;;5.83;;
9270;SDS011;4673;53.458;9.940;2023-05-07T01:27:06;6.77;;;6.77;;
9270;SDS011;4673;53.458;9.940;2023-05-07T01:29:31;6.57;;;6.57;;
9270;SDS011;4673;53.458;9.940;2023-05-07T01:31:58;6.13;;;6.13;;
9270;SDS011;4673;53.458;9.940;2023-05-07T01:34:25;5.90;;;5.90;;
9270;SDS011;4673;53.458;9.940;2023-05-07T01:36:54;6.60;;;6.60;;
9270;SDS011;4673;53.458;9.940;2023-05-07T01:39:21;6.17;;;6.17;;
9270;SDS011;4673;53.458;9.940;2023-05-07T01:41:49;6.20;;;6.20;;
9270;SDS011;4673;53.458;9.940;2023-05-07T01:44:15;5.53;;;5.53;;
9270;SDS011;4673;53.458;9.940;2023-05-07T01:46:43;6.50;;;6.50;;
9270;SDS011;4673;53.458;9.940;2023-05-07T01:49:09;6.57;;;6.57;;
9270;SDS011;4673;53.458;9.940;2023-05-07T01:51:35;6.43;;;6.43;;
9270;SDS011;4673;53.458;9.940;2023-05-07T01:54:01;6.57;;;6.57;;
9270;SDS011;4673;53.458;9.940;2023-05-07T01:56:26;6.47;;;6.47;;
9270;SDS011;4673;53.458;9.940;2023-05-07T01:58:52;6.40;;;6.40;;
9270;SDS011;4673;53.458;9.940;2023-05-07T02:01:18;6.50;;;6.50;;
9270;SDS011;4673;53.458;9.940;2023-05-07T02:03:44;6.07;;;6.07;;
9270;SDS011;4673;53.458;9.940;2023-05-07T02:06:09;5.57;;;5.57;;
9270;SDS011;4673;53.458;9.940;2023-05-07T02:08:35;6.60;;;6.60;;
9270;SDS011;4673;53.458;9.940;2023-05-07T02:11:01;6.63;;;6.63;;
9270;SDS011;4673;53.458;9.940;2023-05-07T02:13:31;5.77;;;5.77;;
9270;SDS011;4673;53.458;9.940;2023-05-07T02:15:58;6.37;;;6.37;;
9270;SDS011;4673;53.458;9.940;2023-05-07T02:20:52;6.40;;;6.40;;
9270;SDS011;4673;53.458;9.940;2023-05-07T02:23:17;6.13;;;6.13;;
9270;SDS011;4673;53.458;9.940;2023-05-07T02:25:43;6.47;;;6.47;;
9270;SDS011;4673;53.458;9.940;2023-05-07T02:28:09;5.97;;;5.97;;
9270;SDS011;4673;53.458;9.940;2023-05-07T02:30:35;6.93;;;6.93;;
9270;SDS011;4673;53.458;9.940;2023-05-07T02:33:02;5.67;;;5.67;;
9270;SDS011;4673;53.458;9.940;2023-05-07T02:35:28;6.27;;;6.27;;
9270;SDS011;4673;53.458;9.940;2023-05-07T02:37:53;6.90;;;6.90;;
9270;SDS011;4673;53.458;9.940;2023-05-07T02:40:19;7.20;;;7.20;;
9270;SDS011;4673;53.458;9.940;2023-05-07T02:42:44;6.70;;;6.70;;
9270;SDS011;4673;53.458;9.940;2023-05-07T02:45:10;6.87;;;6.87;;
9270;SDS011;4673;53.458;9.940;2023-05-07T02:47:36;6.90;;;6.90;;
9270;SDS011;4673;53.458;9.940;2023-05-07T02:50:02;6.57;;;6.57;;
9270;SDS011;4673;53.458;9.940;2023-05-07T02:52:28;6.47;;;6.47;;
9270;SDS011;4673;53.458;9.940;2023-05-07T02:54:54;6.07;;;6.07;;
9270;SDS011;4673;53.458;9.940;2023-05-07T02:57:19;6.30;;;6.30;;
9270;SDS011;4673;53.458;9.940;2023-05-07T02:59:45;5.97;;;5.97;;
9270;SDS011;4673;53.458;9.940;2023-05-07T03:02:11;7.40;;;7.40;;
9270;SDS011;4673;53.458;9.940;2023-05-07T03:04:37;6.70;;;6.70;;
9270;SDS011;4673;53.458;9.940;2023-05-07T03:07:03;7.00;;;7.00;;
9270;SDS011;4673;53.458;9.940;2023-05-07T03:09:29;8.30;;;8.30;;
9270;SDS011;4673;53.458;9.940;2023-05-07T03:11:55;6.87;;;6.87;;
9270;SDS011;4673;53.458;9.940;2023-05-07T03:14:21;7.03;;;7.03;;
9270;SDS011;4673;53.458;9.940;2023-05-07T03:16:48;7.63;;;7.63;;
9270;SDS011;4673;53.458;9.940;2023-05-07T03:19:14;7.87;;;7.87;;
9270;SDS011;4673;53.458;9.940;2023-05-07T03:21:40;6.43;;;6.43;;
9270;SDS011;4673;53.458;9.940;2023-05-07T03:24:06;7.50;;;7.50;;
9270;SDS011;4673;53.458;9.940;2023-05-07T03:26:31;7.50;;;7.50;;
9270;SDS011;4673;53.458;9.940;2023-05-07T03:28:57;7.27;;;7.27;;
9270;SDS011;4673;53.458;9.940;2023-05-07T03:31:22;7.53;;;7.53;;
9270;SDS011;4673;53.458;9.940;2023-05-07T03:33:55;7.40;;;7.40;;
9270;SDS011;4673;53.458;9.940;2023-05-07T03:36:22;7.50;;;7.50;;
9270;SDS011;4673;53.458;9.940;2023-05-07T03:38:48;7.47;;;7.47;;
9270;SDS011;4673;53.458;9.940;2023-05-07T03:41:14;7.80;;;7.80;;
9270;SDS011;4673;53.458;9.940;2023-05-07T03:43:40;7.63;;;7.63;;
9270;SDS011;4673;53.458;9.940;2023-05-07T03:46:06;7.93;;;7.93;;
9270;SDS011;4673;53.458;9.940;2023-05-07T03:48:32;7.13;;;7.13;;
9270;SDS011;4673;53.458;9.940;2023-05-07T03:50:59;6.90;;;6.90;;
9270;SDS011;4673;53.458;9.940;2023-05-07T03:53:24;8.10;;;8.10;;
9270;SDS011;4673;53.458;9.940;2023-05-07T03:55:50;7.73;;;7.73;;
9270;SDS011;4673;53.458;9.940;2023-05-07T03:58:16;7.83;;;7.83;;
9270;SDS011;4673;53.458;9.940;2023-05-07T04:00:41;6.40;;;6.40;;
9270;SDS011;4673;53.458;9.940;2023-05-07T04:03:07;9.03;;;9.03;;
9270;SDS011;4673;53.458;9.940;2023-05-07T04:05:33;7.70;;;7.70;;
9270;SDS011;4673;53.458;9.940;2023-05-07T04:07:59;8.00;;;8.00;;
9270;SDS011;4673;53.458;9.940;2023-05-07T04:10:25;7.43;;;7.43;;
9270;SDS011;4673;53.458;9.940;2023-05-07T04:12:51;7.70;;;7.70;;
9270;SDS011;4673;53.458;9.940;2023-05-07T04:15:16;7.87;;;7.87;;
9270;SDS011;4673;53.458;9.940;2023-05-07T04:17:42;6.70;;;6.70;;
9270;SDS011;4673;53.458;9.940;2023-05-07T04:20:14;8.50;;;8.50;;
9270;SDS011;4673;53.458;9.940;2023-05-07T04:22:41;7.70;;;7.70;;
9270;SDS011;4673;53.458;9.940;2023-05-07T04:25:07;8.13;;;8.13;;
9270;SDS011;4673;53.458;9.940;2023-05-07T04:27:36;7.63;;;7.63;;
9270;SDS011;4673;53.458;9.940;2023-05-07T04:30:02;7.33;;;7.33;;
9270;SDS011;4673;53.458;9.940;2023-05-07T04:32:29;8.00;;;8.00;;
9270;SDS011;4673;53.458;9.940;2023-05-07T04:34:55;7.43;;;7.43;;
9270;SDS011;4673;53.458;9.940;2023-05-07T04:37:21;7.37;;;7.37;;
9270;SDS011;4673;53.458;9.940;2023-05-07T04:39:47;7.87;;;7.87;;
9270;SDS011;4673;53.458;9.940;2023-05-07T04:42:16;6.97;;;6.97;;
9270;SDS011;4673;53.458;9.940;2023-05-07T04:44:43;7.23;;;7.23;;
9270;SDS011;4673;53.458;9.940;2023-05-07T04:47:10;7.43;;;7.43;;
9270;SDS011;4673;53.458;9.940;2023-05-07T04:49:36;7.10;;;7.10;;
9270;SDS011;4673;53.458;9.940;2023-05-07T04:52:03;7.53;;;7.53;;
9270;SDS011;4673;53.458;9.940;2023-05-07T04:54:29;7.10;;;7.10;;
9270;SDS011;4673;53.458;9.940;2023-05-07T04:56:55;7.63;;;7.63;;
9270;SDS011;4673;53.458;9.940;2023-05-07T04:59:20;7.57;;;7.57;;
9270;SDS011;4673;53.458;9.940;2023-05-07T05:01:46;7.30;;;7.30;;
9270;SDS011;4673;53.458;9.940;2023-05-07T05:04:12;7.83;;;7.83;;
9270;SDS011;4673;53.458;9.940;2023-05-07T05:06:38;7.77;;;7.77;;
9270;SDS011;4673;53.458;9.940;2023-05-07T05:09:04;8.33;;;8.33;;
9270;SDS011;4673;53.458;9.940;2023-05-07T05:11:30;8.10;;;8.10;;
9270;SDS011;4673;53.458;9.940;2023-05-07T05:13:56;7.20;;;7.20;;
9270;SDS011;4673;53.458;9.940;2023-05-07T05:16:22;7.63;;;7.63;;
9270;SDS011;4673;53.458;9.940;2023-05-07T05:18:48;7.53;;;7.53;;
9270;SDS011;4673;53.458;9.940;2023-05-07T05:21:13;7.80;;;7.80;;
9270;SDS011;4673;53.458;9.940;2023-05-07T05:23:39;8.33;;;8.33;;
9270;SDS011;4673;53.458;9.940;2023-05-07T05:26:05;8.47;;;8.47;;
9270;SDS011;4673;53.458;9.940;2023-05-07T05:28:30;7.70;;;7.70;;
9270;SDS011;4673;53.458;9.940;2023-05-07T05:30:56;8.00;;;8.00;;
9270;SDS011;4673;53.458;9.940;2023-05-07T05:33:21;6.80;;;6.80;;
9270;SDS011;4673;53.458;9.940;2023-05-07T05:35:47;7.27;;;7.27;;
9270;SDS011;4673;53.458;9.940;2023-05-07T05:38:13;7.57;;;7.57;;
9270;SDS011;4673;53.458;9.940;2023-05-07T05:40:38;8.03;;;8.03;;
9270;SDS011;4673;53.458;9.940;2023-05-07T05:43:05;8.17;;;8.17;;
9270;SDS011;4673;53.458;9.940;2023-05-07T05:45:31;8.03;;;8.03;;
9270;SDS011;4673;53.458;9.940;2023-05-07T05:47:56;7.70;;;7.70;;
9270;SDS011;4673;53.458;9.940;2023-05-07T05:50:22;7.77;;;7.77;;
9270;SDS011;4673;53.458;9.940;2023-05-07T05:52:48;8.07;;;8.07;;
9270;SDS011;4673;53.458;9.940;2023-05-07T05:55:14;8.47;;;8.47;;
9270;SDS011;4673;53.458;9.940;2023-05-07T05:57:39;8.97;;;8.97;;
9270;SDS011;4673;53.458;9.940;2023-05-07T06:00:05;7.37;;;7.37;;
9270;SDS011;4673;53.458;9.940;2023-05-07T06:02:32;6.93;;;6.93;;
9270;SDS011;4673;53.458;9.940;2023-05-07T06:04:58;7.27;;;7.27;;
9270;SDS011;4673;53.458;9.940;2023-05-07T06:07:24;6.80;;;6.80;;
9270;SDS011;4673;53.458;9.940;2023-05-07T06:09:50;7.20;;;7.20;;
9270;SDS011;4673;53.458;9.940;2023-05-07T06:12:15;7.57;;;7.57;;
9270;SDS011;4673;53.458;9.940;2023-05-07T06:14:42;8.80;;;8.80;;
9270;SDS011;4673;53.458;9.940;2023-05-07T06:17:08;7.07;;;7.07;;
9270;SDS011;4673;53.458;9.940;2023-05-07T06:19:34;7.47;;;7.47;;
9270;SDS011;4673;53.458;9.940;2023-05-07T06:22:00;7.77;;;7.77;;
9270;SDS011;4673;53.458;9.940;2023-05-07T06:24:26;7.30;;;7.30;;
9270;SDS011;4673;53.458;9.940;2023-05-07T06:26:52;7.53;;;7.53;;
9270;SDS011;4673;53.458;9.940;2023-05-07T06:29:18;6.80;;;6.80;;
9270;SDS011;4673;53.458;9.940;2023-05-07T06:31:43;6.40;;;6.40;;
9270;SDS011;4673;53.458;9.940;2023-05-07T06:34:09;6.30;;;6.30;;
9270;SDS011;4673;53.458;9.940;2023-05-07T06:36:39;6.23;;;6.23;;
9270;SDS011;4673;53.458;9.940;2023-05-07T06:39:05;6.53;;;6.53;;
9270;SDS011;4673;53.458;9.940;2023-05-07T06:41:31;6.83;;;6.83;;
9270;SDS011;4673;53.458;9.940;2023-05-07T06:43:57;6.33;;;6.33;;
9270;SDS011;4673;53.458;9.940;2023-05-07T06:46:22;6.20;;;6.20;;
9270;SDS011;4673;53.458;9.940;2023-05-07T06:48:48;6.27;;;6.27;;
9270;SDS011;4673;53.458;9.940;2023-05-07T06:51:13;6.30;;;6.30;;
9270;SDS011;4673;53.458;9.940;2023-05-07T06:53:39;6.40;;;6.40;;
9270;SDS011;4673;53.458;9.940;2023-05-07T06:56:05;6.03;;;6.03;;
9270;SDS011;4673;53.458;9.940;2023-05-07T06:58:31;6.20;;;6.20;;
9270;SDS011;4673;53.458;9.940;2023-05-07T07:00:57;5.83;;;5.83;;
9270;SDS011;4673;53.458;9.940;2023-05-07T07:03:22;6.67;;;6.67;;
9270;SDS011;4673;53.458;9.940;2023-05-07T07:05:51;6.23;;;6.23;;
9270;SDS011;4673;53.458;9.940;2023-05-07T07:08:17;6.30;;;6.30;;
9270;SDS011;4673;53.458;9.940;2023-05-07T07:10:46;5.17;;;5.17;;
9270;SDS011;4673;53.458;9.940;2023-05-07T07:13:12;5.77;;;5.77;;
9270;SDS011;4673;53.458;9.940;2023-05-07T07:15:37;6.07;;;6.07;;
9270;SDS011;4673;53.458;9.940;2023-05-07T07:18:03;6.50;;;6.50;;
9270;SDS011;4673;53.458;9.940;2023-05-07T07:20:29;6.33;;;6.33;;
9270;SDS011;4673;53.458;9.940;2023-05-07T07:22:55;5.77;;;5.77;;
9270;SDS011;4673;53.458;9.940;2023-05-07T07:25:20;5.33;;;5.33;;
9270;SDS011;4673;53.458;9.940;2023-05-07T07:27:46;5.70;;;5.70;;
9270;SDS011;4673;53.458;9.940;2023-05-07T07:30:11;6.53;;;6.53;;
9270;SDS011;4673;53.458;9.940;2023-05-07T07:32:37;5.93;;;5.93;;
9270;SDS011;4673;53.458;9.940;2023-05-07T07:35:03;5.57;;;5.57;;
9270;SDS011;4673;53.458;9.940;2023-05-07T07:37:29;5.33;;;5.33;;
9270;SDS011;4673;53.458;9.940;2023-05-07T07:39:55;5.57;;;5.57;;
9270;SDS011;4673;53.458;9.940;2023-05-07T07:42:21;5.27;;;5.27;;
9270;SDS011;4673;53.458;9.940;2023-05-07T07:44:46;5.70;;;5.70;;
9270;SDS011;4673;53.458;9.940;2023-05-07T07:47:12;4.97;;;4.97;;
9270;SDS011;4673;53.458;9.940;2023-05-07T07:49:37;4.90;;;4.90;;
9270;SDS011;4673;53.458;9.940;2023-05-07T07:52:03;5.47;;;5.47;;
9270;SDS011;4673;53.458;9.940;2023-05-07T07:54:29;4.60;;;4.60;;
9270;SDS011;4673;53.458;9.940;2023-05-07T07:56:55;4.57;;;4.57;;
9270;SDS011;4673;53.458;9.940;2023-05-07T07:59:20;5.23;;;5.23;;
9270;SDS011;4673;53.458;9.940;2023-05-07T08:01:46;4.70;;;4.70;;
9270;SDS011;4673;53.458;9.940;2023-05-07T08:04:15;4.50;;;4.50;;
9270;SDS011;4673;53.458;9.940;2023-05-07T08:06:40;4.80;;;4.80;;
9270;SDS011;4673;53.458;9.940;2023-05-07T08:09:07;5.37;;;5.37;;
9270;SDS011;4673;53.458;9.940;2023-05-07T08:11:33;4.43;;;4.43;;
9270;SDS011;4673;53.458;9.940;2023-05-07T08:13:59;4.87;;;4.87;;
9270;SDS011;4673;53.458;9.940;2023-05-07T08:16:25;4.60;;;4.60;;
9270;SDS011;4673;53.458;9.940;2023-05-07T08:18:56;4.97;;;4.97;;
9270;SDS011;4673;53.458;9.940;2023-05-07T08:21:25;4.23;;;4.23;;
9270;SDS011;4673;53.458;9.940;2023-05-07T08:23:51;5.00;;;5.00;;
9270;SDS011;4673;53.458;9.940;2023-05-07T08:26:16;4.07;;;4.07;;
9270;SDS011;4673;53.458;9.940;2023-05-07T08:28:42;5.10;;;5.10;;
9270;SDS011;4673;53.458;9.940;2023-05-07T08:31:08;4.13;;;4.13;;
9270;SDS011;4673;53.458;9.940;2023-05-07T08:33:33;4.93;;;4.93;;
9270;SDS011;4673;53.458;9.940;2023-05-07T08:35:59;4.77;;;4.77;;
9270;SDS011;4673;53.458;9.940;2023-05-07T08:38:25;4.30;;;4.30;;
9270;SDS011;4673;53.458;9.940;2023-05-07T08:40:51;4.50;;;4.50;;
9270;SDS011;4673;53.458;9.940;2023-05-07T08:43:17;3.87;;;3.87;;
9270;SDS011;4673;53.458;9.940;2023-05-07T08:45:45;4.73;;;4.73;;
9270;SDS011;4673;53.458;9.940;2023-05-07T08:48:14;4.40;;;4.40;;
9270;SDS011;4673;53.458;9.940;2023-05-07T08:50:41;4.03;;;4.03;;
9270;SDS011;4673;53.458;9.940;2023-05-07T08:53:12;3.93;;;3.93;;
9270;SDS011;4673;53.458;9.940;2023-05-07T08:55:39;4.20;;;4.20;;
9270;SDS011;4673;53.458;9.940;2023-05-07T08:58:07;4.70;;;4.70;;
9270;SDS011;4673;53.458;9.940;2023-05-07T09:00:36;4.00;;;4.00;;
9270;SDS011;4673;53.458;9.940;2023-05-07T09:03:02;4.87;;;4.87;;
9270;SDS011;4673;53.458;9.940;2023-05-07T09:05:37;4.37;;;4.37;;
9270;SDS011;4673;53.458;9.940;2023-05-07T09:08:03;4.83;;;4.83;;
9270;SDS011;4673;53.458;9.940;2023-05-07T09:10:36;4.20;;;4.20;;
9270;SDS011;4673;53.458;9.940;2023-05-07T09:13:12;4.80;;;4.80;;
9270;SDS011;4673;53.458;9.940;2023-05-07T09:15:39;4.47;;;4.47;;
9270;SDS011;4673;53.458;9.940;2023-05-07T09:18:07;5.20;;;5.20;;
9270;SDS011;4673;53.458;9.940;2023-05-07T09:20:33;4.17;;;4.17;;
9270;SDS011;4673;53.458;9.940;2023-05-07T09:23:06;4.70;;;4.70;;
9270;SDS011;4673;53.458;9.940;2023-05-07T09:25:33;4.50;;;4.50;;
9270;SDS011;4673;53.458;9.940;2023-05-07T09:28:00;4.83;;;4.83;;
9270;SDS011;4673;53.458;9.940;2023-05-07T09:30:30;5.03;;;5.03;;
9270;SDS011;4673;53.458;9.940;2023-05-07T09:33:00;4.60;;;4.60;;
9270;SDS011;4673;53.458;9.940;2023-05-07T09:35:27;4.87;;;4.87;;
9270;SDS011;4673;53.458;9.940;2023-05-07T09:37:54;5.23;;;5.23;;
9270;SDS011;4673;53.458;9.940;2023-05-07T09:40:21;3.97;;;3.97;;
9270;SDS011;4673;53.458;9.940;2023-05-07T09:42:48;4.37;;;4.37;;
9270;SDS011;4673;53.458;9.940;2023-05-07T09:45:15;4.70;;;4.70;;
9270;SDS011;4673;53.458;9.940;2023-05-07T09:47:42;4.70;;;4.70;;
9270;SDS011;4673;53.458;9.940;2023-05-07T09:50:12;4.33;;;4.33;;
9270;SDS011;4673;53.458;9.940;2023-05-07T09:52:41;4.30;;;4.30;;
9270;SDS011;4673;53.458;9.940;2023-05-07T09:55:09;4.83;;;4.83;;
9270;SDS011;4673;53.458;9.940;2023-05-07T09:57:36;4.67;;;4.67;;
9270;SDS011;4673;53.458;9.940;2023-05-07T10:00:02;4.90;;;4.90;;
9270;SDS011;4673;53.458;9.940;2023-05-07T10:02:33;4.57;;;4.57;;
9270;SDS011;4673;53.458;9.940;2023-05-07T10:05:01;5.67;;;5.67;;
9270;SDS011;4673;53.458;9.940;2023-05-07T10:07:28;5.10;;;5.10;;
9270;SDS011;4673;53.458;9.940;2023-05-07T10:09:55;4.87;;;4.87;;
9270;SDS011;4673;53.458;9.940;2023-05-07T10:12:21;5.03;;;5.03;;
9270;SDS011;4673;53.458;9.940;2023-05-07T10:14:47;5.00;;;5.00;;
9270;SDS011;4673;53.458;9.940;2023-05-07T10:17:13;5.27;;;5.27;;
9270;SDS011;4673;53.458;9.940;2023-05-07T10:19:42;5.27;;;5.27;;
9270;SDS011;4673;53.458;9.940;2023-05-07T10:22:09;5.27;;;5.27;;
9270;SDS011;4673;53.458;9.940;2023-05-07T10:24:37;5.03;;;5.03;;
9270;SDS011;4673;53.458;9.940;2023-05-07T10:27:09;5.03;;;5.03;;
9270;SDS011;4673;53.458;9.940;2023-05-07T10:32:48;4.57;;;4.57;;
9270;SDS011;4673;53.458;9.940;2023-05-07T10:35:20;4.77;;;4.77;;
9270;SDS011;4673;53.458;9.940;2023-05-07T10:37:47;4.68;;;4.68;;
9270;SDS011;4673;53.458;9.940;2023-05-07T10:40:14;4.32;;;4.32;;
9270;SDS011;4673;53.458;9.940;2023-05-07T10:42:52;4.78;;;4.78;;
9270;SDS011;4673;53.458;9.940;2023-05-07T10:45:20;4.38;;;4.38;;
9270;SDS011;4673;53.458;9.940;2023-05-07T10:50:31;5.80;;;5.80;;
9270;SDS011;4673;53.458;9.940;2023-05-07T10:53:20;5.15;;;5.15;;
9270;SDS011;4673;53.458;9.940;2023-05-07T10:55:48;4.53;;;4.53;;
9270;SDS011;4673;53.458;9.940;2023-05-07T10:58:25;4.63;;;4.63;;
9270;SDS011;4673;53.458;9.940;2023-05-07T11:00:58;5.13;;;5.13;;
9270;SDS011;4673;53.458;9.940;2023-05-07T11:03:26;5.65;;;5.65;;
9270;SDS011;4673;53.458;9.940;2023-05-07T11:08:55;5.93;;;5.93;;
9270;SDS011;4673;53.458;9.940;2023-05-07T11:17:07;4.97;;;4.97;;
9270;SDS011;4673;53.458;9.940;2023-05-07T11:19:53;4.03;;;4.03;;
9270;SDS011;4673;53.458;9.940;2023-05-07T11:22:53;4.28;;;4.28;;
9270;SDS011;4673;53.458;9.940;2023-05-07T11:25:19;4.50;;;4.50;;
9270;SDS011;4673;53.458;9.940;2023-05-07T11:27:44;3.85;;;3.85;;
9270;SDS011;4673;53.458;9.940;2023-05-07T11:30:16;4.53;;;4.53;;
9270;SDS011;4673;53.458;9.940;2023-05-07T11:32:47;4.38;;;4.38;;
9270;SDS011;4673;53.458;9.940;2023-05-07T11:35:13;4.68;;;4.68;;
9270;SDS011;4673;53.458;9.940;2023-05-07T11:37:40;4.28;;;4.28;;
9270;SDS011;4673;53.458;9.940;2023-05-07T11:40:07;4.30;;;4.30;;
9270;SDS011;4673;53.458;9.940;2023-05-07T11:42:36;4.43;;;4.43;;
9270;SDS011;4673;53.458;9.940;2023-05-07T11:45:03;4.75;;;4.75;;
9270;SDS011;4673;53.458;9.940;2023-05-07T11:47:31;3.95;;;3.95;;
9270;SDS011;4673;53.458;9.940;2023-05-07T11:49:57;4.10;;;4.10;;
9270;SDS011;4673;53.458;9.940;2023-05-07T11:52:31;4.22;;;4.22;;
9270;SDS011;4673;53.458;9.940;2023-05-07T11:54:58;4.05;;;4.05;;
9270;SDS011;4673;53.458;9.940;2023-05-07T11:57:25;3.75;;;3.75;;
9270;SDS011;4673;53.458;9.940;2023-05-07T11:59:55;3.78;;;3.78;;
9270;SDS011;4673;53.458;9.940;2023-05-07T12:02:21;3.55;;;3.55;;
9270;SDS011;4673;53.458;9.940;2023-05-07T12:04:47;3.60;;;3.60;;
9270;SDS011;4673;53.458;9.940;2023-05-07T12:07:14;3.85;;;3.85;;
9270;SDS011;4673;53.458;9.940;2023-05-07T12:09:40;4.30;;;4.30;;
9270;SDS011;4673;53.458;9.940;2023-05-07T12:12:06;4.30;;;4.30;;
9270;SDS011;4673;53.458;9.940;2023-05-07T12:14:33;3.63;;;3.63;;
9270;SDS011;4673;53.458;9.940;2023-05-07T12:17:06;3.78;;;3.78;;
9270;SDS011;4673;53.458;9.940;2023-05-07T12:19:33;4.25;;;4.25;;
9270;SDS011;4673;53.458;9.940;2023-05-07T12:22:00;3.70;;;3.70;;
9270;SDS011;4673;53.458;9.940;2023-05-07T12:24:27;3.33;;;3.33;;
9270;SDS011;4673;53.458;9.940;2023-05-07T12:26:53;3.25;;;3.25;;
9270;SDS011;4673;53.458;9.940;2023-05-07T12:29:22;3.88;;;3.88;;
9270;SDS011;4673;53.458;9.940;2023-05-07T12:31:49;3.38;;;3.38;;
9270;SDS011;4673;53.458;9.940;2023-05-07T12:34:15;3.40;;;3.40;;
9270;SDS011;4673;53.458;9.940;2023-05-07T12:36:41;3.95;;;3.95;;
9270;SDS011;4673;53.458;9.940;2023-05-07T12:39:10;3.70;;;3.70;;
9270;SDS011;4673;53.458;9.940;2023-05-07T12:41:36;3.88;;;3.88;;
9270;SDS011;4673;53.458;9.940;2023-05-07T12:44:19;3.00;;;3.00;;
9270;SDS011;4673;53.458;9.940;2023-05-07T12:46:47;3.30;;;3.30;;
9270;SDS011;4673;53.458;9.940;2023-05-07T12:49:12;3.40;;;3.40;;
9270;SDS011;4673;53.458;9.940;2023-05-07T12:51:38;3.42;;;3.42;;
9270;SDS011;4673;53.458;9.940;2023-05-07T12:54:04;3.05;;;3.05;;
9270;SDS011;4673;53.458;9.940;2023-05-07T12:56:35;3.05;;;3.05;;
9270;SDS011;4673;53.458;9.940;2023-05-07T12:59:01;3.00;;;3.00;;
9270;SDS011;4673;53.458;9.940;2023-05-07T13:01:30;3.17;;;3.17;;
9270;SDS011;4673;53.458;9.940;2023-05-07T13:04:04;3.00;;;3.00;;
9270;SDS011;4673;53.458;9.940;2023-05-07T13:06:30;3.10;;;3.10;;
9270;SDS011;4673;53.458;9.940;2023-05-07T13:08:56;2.67;;;2.67;;
9270;SDS011;4673;53.458;9.940;2023-05-07T13:11:22;2.90;;;2.90;;
9270;SDS011;4673;53.458;9.940;2023-05-07T13:13:48;2.83;;;2.83;;
9270;SDS011;4673;53.458;9.940;2023-05-07T13:16:17;2.90;;;2.90;;
9270;SDS011;4673;53.458;9.940;2023-05-07T13:18:42;3.22;;;3.22;;
9270;SDS011;4673;53.458;9.940;2023-05-07T13:21:10;2.70;;;2.70;;
9270;SDS011;4673;53.458;9.940;2023-05-07T13:23:38;2.85;;;2.85;;
9270;SDS011;4673;53.458;9.940;2023-05-07T13:26:03;2.65;;;2.65;;
9270;SDS011;4673;53.458;9.940;2023-05-07T13:28:29;2.83;;;2.83;;
9270;SDS011;4673;53.458;9.940;2023-05-07T13:30:55;2.60;;;2.60;;
9270;SDS011;4673;53.458;9.940;2023-05-07T13:33:23;2.67;;;2.67;;
9270;SDS011;4673;53.458;9.940;2023-05-07T13:35:49;2.80;;;2.80;;
9270;SDS011;4673;53.458;9.940;2023-05-07T13:38:15;2.42;;;2.42;;
9270;SDS011;4673;53.458;9.940;2023-05-07T13:40:41;2.28;;;2.28;;
9270;SDS011;4673;53.458;9.940;2023-05-07T13:43:16;2.80;;;2.80;;
9270;SDS011;4673;53.458;9.940;2023-05-07T13:45:43;2.25;;;2.25;;
9270;SDS011;4673;53.458;9.940;2023-05-07T13:48:09;2.08;;;2.08;;
9270;SDS011;4673;53.458;9.940;2023-05-07T13:50:35;2.42;;;2.42;;
9270;SDS011;4673;53.458;9.940;2023-05-07T13:53:03;2.38;;;2.38;;
9270;SDS011;4673;53.458;9.940;2023-05-07T13:55:29;2.35;;;2.35;;
9270;SDS011;4673;53.458;9.940;2023-05-07T13:57:58;2.65;;;2.65;;
9270;SDS011;4673;53.458;9.940;2023-05-07T14:00:27;2.35;;;2.35;;
9270;SDS011;4673;53.458;9.940;2023-05-07T14:02:56;2.40;;;2.40;;
9270;SDS011;4673;53.458;9.940;2023-05-07T14:05:22;2.22;;;2.22;;
9270;SDS011;4673;53.458;9.940;2023-05-07T14:07:55;2.22;;;2.22;;
9270;SDS011;4673;53.458;9.940;2023-05-07T14:10:25;2.90;;;2.90;;
9270;SDS011;4673;53.458;9.940;2023-05-07T14:12:53;1.85;;;1.85;;
9270;SDS011;4673;53.458;9.940;2023-05-07T14:15:20;2.15;;;2.15;;
9270;SDS011;4673;53.458;9.940;2023-05-07T14:17:50;2.10;;;2.10;;
9270;SDS011;4673;53.458;9.940;2023-05-07T14:20:16;1.95;;;1.95;;
9270;SDS011;4673;53.458;9.940;2023-05-07T14:22:42;1.95;;;1.95;;
9270;SDS011;4673;53.458;9.940;2023-05-07T14:25:08;1.92;;;1.92;;
9270;SDS011;4673;53.458;9.940;2023-05-07T14:27:34;2.10;;;2.10;;
9270;SDS011;4673;53.458;9.940;2023-05-07T14:30:00;2.28;;;2.28;;
9270;SDS011;4673;53.458;9.940;2023-05-07T14:32:25;1.67;;;1.67;;
9270;SDS011;4673;53.458;9.940;2023-05-07T14:34:51;2.30;;;2.30;;
9270;SDS011;4673;53.458;9.940;2023-05-07T14:37:17;1.98;;;1.98;;
9270;SDS011;4673;53.458;9.940;2023-05-07T14:39:44;1.70;;;1.70;;
9270;SDS011;4673;53.458;9.940;2023-05-07T14:42:10;1.77;;;1.77;;
9270;SDS011;4673;53.458;9.940;2023-05-07T14:44:37;2.28;;;2.28;;
9270;SDS011;4673;53.458;9.940;2023-05-07T14:47:05;1.92;;;1.92;;
9270;SDS011;4673;53.458;9.940;2023-05-07T14:49:31;2.08;;;2.08;;
9270;SDS011;4673;53.458;9.940;2023-05-07T14:51:57;1.55;;;1.55;;
9270;SDS011;4673;53.458;9.940;2023-05-07T14:54:24;1.48;;;1.48;;
9270;SDS011;4673;53.458;9.940;2023-05-07T14:56:50;2.05;;;2.05;;
9270;SDS011;4673;53.458;9.940;2023-05-07T14:59:16;1.80;;;1.80;;
9270;SDS011;4673;53.458;9.940;2023-05-07T15:01:45;1.92;;;1.92;;
9270;SDS011;4673;53.458;9.940;2023-05-07T15:04:12;2.10;;;2.10;;
9270;SDS011;4673;53.458;9.940;2023-05-07T15:06:37;1.88;;;1.88;;
9270;SDS011;4673;53.458;9.940;2023-05-07T15:09:03;2.38;;;2.38;;
9270;SDS011;4673;53.458;9.940;2023-05-07T15:11:29;1.80;;;1.80;;
9270;SDS011;4673;53.458;9.940;2023-05-07T15:13:55;1.92;;;1.92;;
9270;SDS011;4673;53.458;9.940;2023-05-07T15:16:21;1.92;;;1.92;;
9270;SDS011;4673;53.458;9.940;2023-05-07T15:18:46;1.80;;;1.80;;
9270;SDS011;4673;53.458;9.940;2023-05-07T15:21:12;1.80;;;1.80;;
9270;SDS011;4673;53.458;9.940;2023-05-07T15:23:38;1.88;;;1.88;;
9270;SDS011;4673;53.458;9.940;2023-05-07T15:26:06;1.33;;;1.33;;
9270;SDS011;4673;53.458;9.940;2023-05-07T15:28:32;1.80;;;1.80;;
9270;SDS011;4673;53.458;9.940;2023-05-07T15:30:58;1.48;;;1.48;;